Time;durP1;ratioP1;P1;durP2;ratioP2;P2;SDS_P1;SDS_P2;PMS_P1;PMS_P2;Temp;Humidity;BMP_temperature;BMP_pressure;BME280_temperature;BME280_humidity;BME280_pressure;Samples;Min_cycle;Max_cycle;Signal;HPM_P1;HPM_P2
2022/05/15 00:02:06;;;;;;;22.33;9.60;;;10.00;99.90;;;;;;4958987;28;89481;-34
2022/05/15 00:04:32;;;;;;;18.80;9.25;;;9.90;99.90;;;;;;4959834;28;89037;-35
2022/05/15 00:06:58;;;;;;;23.25;10.57;;;9.90;99.90;;;;;;4958517;28;89395;-34
2022/05/15 00:09:24;;;;;;;19.55;9.57;;;9.90;99.90;;;;;;4958929;28;90388;-38
2022/05/15 00:11:50;;;;;;;23.17;10.18;;;9.90;99.90;;;;;;4959621;28;90333;-35
2022/05/15 00:14:16;;;;;;;18.70;9.20;;;9.80;99.90;;;;;;4958439;28;89294;-37
2022/05/15 00:16:42;;;;;;;19.15;9.65;;;9.80;99.90;;;;;;4959196;28;90185;-36
2022/05/15 00:19:07;;;;;;;28.25;9.25;;;9.80;99.90;;;;;;4960338;28;91196;-35
2022/05/15 00:21:33;;;;;;;21.13;9.70;;;9.80;99.90;;;;;;4962605;28;89391;-34
2022/05/15 00:23:59;;;;;;;18.73;8.93;;;9.90;99.90;;;;;;4962506;28;89897;-34
2022/05/15 00:26:26;;;;;;;24.13;11.07;;;9.80;99.90;;;;;;4962088;28;90181;-38
2022/05/15 00:28:52;;;;;;;26.70;10.93;;;9.80;99.90;;;;;;4961819;28;89789;-35
2022/05/15 00:31:18;;;;;;;22.38;10.65;;;9.70;99.90;;;;;;4961583;28;89640;-34
2022/05/15 00:33:45;;;;;;;25.88;10.43;;;9.70;99.90;;;;;;4961887;28;88778;-34
2022/05/15 00:36:11;;;;;;;31.20;9.48;;;9.60;99.90;;;;;;4962431;28;89923;-34
2022/05/15 00:38:37;;;;;;;23.77;9.95;;;9.60;99.90;;;;;;4961827;28;89326;-36
2022/05/15 00:41:04;;;;;;;19.55;10.90;;;9.60;99.90;;;;;;4962260;28;89123;-38
2022/05/15 00:43:49;;;;;;;29.73;10.02;;;9.60;99.90;;;;;;4994180;22;89527;-36
2022/05/15 00:46:21;;;;;;;24.38;10.82;;;9.60;99.90;;;;;;4961647;28;90423;-35
2022/05/15 00:48:47;;;;;;;21.02;10.20;;;9.50;99.90;;;;;;4961697;28;91231;-36
2022/05/15 00:51:27;;;;;;;22.17;9.73;;;9.40;99.90;;;;;;4961397;28;89490;-34
2022/05/15 00:53:57;;;;;;;20.50;10.60;;;9.30;99.90;;;;;;4961301;28;89122;-35
2022/05/15 00:56:26;;;;;;;22.25;9.00;;;9.30;99.90;;;;;;4961105;28;88964;-39
2022/05/15 00:59:07;;;;;;;22.85;8.90;;;9.30;99.90;;;;;;4961894;28;89855;-37
2022/05/15 01:01:33;;;;;;;19.15;9.80;;;9.20;99.90;;;;;;4962400;28;89473;-36
2022/05/15 01:04:00;;;;;;;23.77;8.65;;;9.20;99.90;;;;;;4961748;28;89307;-38
2022/05/15 01:06:25;;;;;;;15.88;8.85;;;9.20;99.90;;;;;;4962208;28;91092;-34
2022/05/15 01:08:51;;;;;;;19.25;8.07;;;9.20;99.90;;;;;;4960840;28;89631;-35
2022/05/15 01:11:18;;;;;;;30.20;10.27;;;9.20;99.90;;;;;;4961705;28;90835;-39
2022/05/15 01:13:45;;;;;;;27.27;9.70;;;9.10;99.90;;;;;;4961572;28;88703;-36
2022/05/15 01:16:12;;;;;;;17.20;8.70;;;9.20;99.90;;;;;;4961866;28;89822;-35
2022/05/15 01:18:38;;;;;;;27.15;10.40;;;9.10;99.90;;;;;;4960168;28;89180;-36
2022/05/15 01:21:24;;;;;;;22.40;10.07;;;9.20;99.90;;;;;;4941909;28;90032;-34
2022/05/15 01:23:50;;;;;;;25.88;10.43;;;9.20;99.90;;;;;;4941734;28;89503;-37
2022/05/15 01:26:16;;;;;;;26.25;10.90;;;9.10;99.90;;;;;;4941327;28;89949;-34
2022/05/15 01:28:45;;;;;;;22.33;9.10;;;9.10;99.90;;;;;;4940858;28;90197;-36
2022/05/15 01:31:11;;;;;;;22.02;10.23;;;9.20;99.90;;;;;;4941662;28;89470;-33
2022/05/15 01:33:38;;;;;;;15.63;9.18;;;9.20;99.90;;;;;;4940545;28;88318;-37
2022/05/15 01:36:04;;;;;;;30.48;10.00;;;9.20;99.90;;;;;;4941890;28;90294;-41
2022/05/15 01:38:30;;;;;;;26.55;11.00;;;9.10;99.90;;;;;;4941432;28;89701;-34
2022/05/15 01:40:56;;;;;;;22.52;9.65;;;9.00;99.90;;;;;;4940818;28;93962;-34
2022/05/15 01:43:22;;;;;;;19.13;8.07;;;9.10;99.90;;;;;;4941720;28;89071;-36
2022/05/15 01:45:47;;;;;;;23.95;9.10;;;9.00;99.90;;;;;;4941581;28;90330;-37
2022/05/15 01:48:13;;;;;;;50.05;11.98;;;9.00;99.90;;;;;;4941557;28;89982;-36
2022/05/15 01:50:38;;;;;;;23.60;10.82;;;9.00;99.90;;;;;;4940993;28;89884;-36
2022/05/15 01:53:04;;;;;;;19.98;8.32;;;9.00;99.90;;;;;;4940622;28;89479;-37
2022/05/15 01:55:30;;;;;;;21.08;9.98;;;9.00;99.90;;;;;;4941653;28;90119;-34
2022/05/15 01:57:55;;;;;;;18.45;9.18;;;8.90;99.90;;;;;;4940181;28;90567;-34
2022/05/15 02:00:23;;;;;;;25.20;10.15;;;8.90;99.90;;;;;;4942282;28;90483;-36
2022/05/15 02:02:49;;;;;;;29.55;10.40;;;8.80;99.90;;;;;;4941006;28;89138;-36
2022/05/15 02:05:16;;;;;;;19.48;11.13;;;8.80;99.90;;;;;;4940464;28;88896;-38
2022/05/15 02:07:42;;;;;;;20.98;9.55;;;8.80;99.90;;;;;;4939912;28;89889;-37
2022/05/15 02:10:09;;;;;;;14.88;9.18;;;8.80;99.90;;;;;;4941872;28;89589;-34
2022/05/15 02:12:35;;;;;;;24.75;10.68;;;8.70;99.90;;;;;;4941188;28;88116;-36
2022/05/15 02:15:02;;;;;;;17.55;10.93;;;8.70;99.90;;;;;;4941224;28;90044;-39
2022/05/15 02:17:28;;;;;;;20.30;10.10;;;8.70;99.90;;;;;;4940793;28;89667;-35
2022/05/15 02:19:53;;;;;;;18.65;9.98;;;8.70;99.90;;;;;;4940243;28;89703;-34
2022/05/15 02:22:19;;;;;;;28.02;11.00;;;8.60;99.90;;;;;;4940441;28;90628;-36
2022/05/15 02:24:45;;;;;;;16.73;8.55;;;8.60;99.90;;;;;;4940072;28;90330;-37
2022/05/15 02:27:11;;;;;;;25.15;10.82;;;8.50;99.90;;;;;;4941581;28;90076;-34
2022/05/15 02:29:37;;;;;;;16.17;9.52;;;8.50;99.90;;;;;;4940577;28;91073;-36
2022/05/15 02:32:03;;;;;;;22.92;9.98;;;8.60;99.90;;;;;;4940659;28;88307;-34
2022/05/15 02:34:28;;;;;;;21.75;11.45;;;8.50;99.90;;;;;;4940519;28;89295;-37
2022/05/15 02:36:54;;;;;;;16.42;8.90;;;8.60;99.90;;;;;;4939744;28;89543;-32
2022/05/15 02:39:19;;;;;;;24.38;10.95;;;8.50;99.90;;;;;;4941436;28;90200;-39
2022/05/15 02:41:45;;;;;;;25.13;10.35;;;8.60;99.90;;;;;;4938962;28;88365;-35
2022/05/15 02:44:11;;;;;;;30.40;11.48;;;8.50;99.90;;;;;;4938667;28;90165;-38
2022/05/15 02:46:36;;;;;;;19.95;9.45;;;8.40;99.90;;;;;;4939716;28;90499;-34
2022/05/15 02:51:47;;;;;;;24.13;10.57;;;8.20;99.90;;;;;;4940323;28;88461;-35
2022/05/15 02:54:12;;;;;;;20.75;9.02;;;8.20;99.90;;;;;;4939775;28;90993;-36
2022/05/15 02:56:38;;;;;;;25.52;9.80;;;8.20;99.90;;;;;;4940358;28;90022;-34
2022/05/15 02:59:05;;;;;;;33.85;12.50;;;8.30;99.90;;;;;;4940647;28;89788;-34
2022/05/15 03:01:31;;;;;;;20.10;11.27;;;8.30;99.90;;;;;;4940190;28;87647;-34
2022/05/15 03:03:56;;;;;;;38.92;13.23;;;8.30;99.90;;;;;;4939909;28;90257;-35
2022/05/15 03:06:22;;;;;;;28.10;12.35;;;8.30;99.90;;;;;;4940002;28;89177;-34
2022/05/15 03:08:51;;;;;;;28.02;11.73;;;8.30;99.90;;;;;;4939548;28;89685;-39
2022/05/15 03:11:18;;;;;;;22.00;11.45;;;8.30;99.90;;;;;;4939718;28;89874;-35
2022/05/15 03:13:43;;;;;;;33.55;12.68;;;8.30;99.90;;;;;;4939607;28;90465;-37
2022/05/15 03:16:11;;;;;;;21.88;11.05;;;8.40;99.90;;;;;;4939441;28;91875;-36
2022/05/15 03:18:42;;;;;;;29.80;12.73;;;8.40;99.90;;;;;;4938853;28;90171;-36
2022/05/15 03:21:10;;;;;;;31.35;11.52;;;8.40;99.90;;;;;;4939612;28;89331;-34
2022/05/15 03:23:36;;;;;;;25.23;10.63;;;8.30;99.90;;;;;;4939128;28;90325;-33
2022/05/15 03:26:02;;;;;;;24.17;11.13;;;8.30;99.90;;;;;;4940189;28;89697;-33
2022/05/15 03:28:27;;;;;;;24.60;11.02;;;8.30;99.90;;;;;;4939194;28;89938;-35
2022/05/15 03:30:53;;;;;;;22.33;10.93;;;8.30;99.90;;;;;;4940212;28;89537;-35
2022/05/15 03:33:19;;;;;;;18.90;11.13;;;8.20;99.90;;;;;;4939136;28;90226;-33
2022/05/15 03:35:44;;;;;;;21.58;11.50;;;8.20;99.90;;;;;;4939123;28;95230;-41
2022/05/15 03:38:10;;;;;;;25.73;12.73;;;8.10;99.90;;;;;;4939980;28;90363;-35
2022/05/15 03:40:37;;;;;;;27.90;11.90;;;8.10;99.90;;;;;;4938978;28;88807;-38
2022/05/15 03:43:02;;;;;;;26.15;11.95;;;8.10;99.90;;;;;;4939076;28;90435;-35
2022/05/15 03:45:29;;;;;;;24.27;10.65;;;8.00;99.90;;;;;;4938836;28;89650;-38
2022/05/15 03:47:55;;;;;;;27.45;11.70;;;8.00;99.90;;;;;;4939140;28;88726;-35
2022/05/15 03:50:23;;;;;;;16.40;10.77;;;8.00;99.90;;;;;;4940061;28;89606;-34
2022/05/15 03:52:49;;;;;;;22.25;10.93;;;8.00;99.90;;;;;;4940382;28;90231;-39
2022/05/15 03:55:15;;;;;;;22.48;10.23;;;8.00;99.90;;;;;;4945321;28;89863;-34
2022/05/15 03:57:41;;;;;;;28.55;12.90;;;8.10;99.90;;;;;;4945778;28;89544;-35
2022/05/15 04:00:12;;;;;;;21.02;10.93;;;8.10;99.90;;;;;;4945595;28;89040;-39
2022/05/15 04:02:40;;;;;;;18.08;10.05;;;8.00;99.90;;;;;;4945120;28;91197;-35
2022/05/15 04:05:07;;;;;;;20.67;9.95;;;8.00;99.90;;;;;;4945175;28;89328;-37
2022/05/15 04:07:41;;;;;;;26.10;11.40;;;8.00;99.90;;;;;;4945928;28;89955;-38
2022/05/15 04:10:07;;;;;;;19.75;10.93;;;8.00;99.90;;;;;;4945644;28;88316;-33
2022/05/15 04:12:32;;;;;;;23.35;11.35;;;7.90;99.90;;;;;;4945388;28;89413;-37
2022/05/15 04:14:58;;;;;;;19.23;10.55;;;8.00;99.90;;;;;;4945687;28;89099;-33
2022/05/15 04:17:23;;;;;;;20.23;10.63;;;8.00;99.90;;;;;;4945323;28;89599;-35
2022/05/15 04:19:49;;;;;;;13.98;10.65;;;7.90;99.90;;;;;;4945781;28;89329;-34
2022/05/15 04:22:15;;;;;;;14.98;11.38;;;8.00;99.90;;;;;;4944920;28;90653;-35
2022/05/15 04:24:40;;;;;;;24.55;11.82;;;8.10;99.90;;;;;;4944874;28;90643;-36
2022/05/15 04:27:06;;;;;;;16.23;10.90;;;8.20;99.90;;;;;;4945119;28;90632;-35
2022/05/15 04:29:32;;;;;;;21.60;12.02;;;8.10;99.90;;;;;;4944902;28;88570;-34
2022/05/15 04:31:58;;;;;;;18.63;11.90;;;8.10;99.90;;;;;;4945529;28;89466;-36
2022/05/15 04:34:24;;;;;;;20.67;12.02;;;8.50;99.90;;;;;;4945641;28;89419;-39
2022/05/15 04:36:50;;;;;;;21.85;12.30;;;8.90;99.90;;;;;;4944927;28;89713;-38
2022/05/15 04:39:16;;;;;;;22.13;11.50;;;9.10;99.90;;;;;;4945213;28;89109;-33
2022/05/15 04:41:42;;;;;;;23.38;11.98;;;9.20;99.90;;;;;;4945094;28;90637;-34
2022/05/15 04:44:08;;;;;;;21.40;11.73;;;9.30;99.90;;;;;;4944994;28;89757;-33
2022/05/15 04:46:34;;;;;;;28.38;13.02;;;9.30;99.90;;;;;;4945299;28;89706;-37
2022/05/15 04:48:59;;;;;;;19.80;12.48;;;9.40;99.90;;;;;;4944910;28;90132;-35
2022/05/15 04:51:26;;;;;;;23.77;13.30;;;9.50;99.90;;;;;;4944977;28;90989;-33
2022/05/15 04:53:51;;;;;;;26.48;13.30;;;9.50;99.90;;;;;;4944161;28;90937;-33
2022/05/15 04:56:17;;;;;;;28.13;13.52;;;9.60;99.90;;;;;;4945252;28;89957;-34
2022/05/15 04:58:43;;;;;;;32.92;11.18;;;9.60;99.90;;;;;;4945157;28;89321;-34
2022/05/15 05:01:08;;;;;;;29.52;11.30;;;9.60;99.90;;;;;;4945331;28;89304;-39
2022/05/15 05:03:34;;;;;;;22.30;11.68;;;9.70;99.90;;;;;;4945001;28;90024;-35
2022/05/15 05:06:00;;;;;;;27.90;13.13;;;9.70;99.90;;;;;;4940930;28;89423;-36
2022/05/15 05:08:25;;;;;;;26.55;12.10;;;9.80;99.90;;;;;;4942571;28;89026;-33
2022/05/15 05:10:51;;;;;;;26.73;12.73;;;9.90;99.90;;;;;;4941728;28;89209;-34
2022/05/15 05:13:17;;;;;;;24.55;12.63;;;10.00;99.90;;;;;;4941116;28;90661;-36
2022/05/15 05:15:42;;;;;;;28.73;12.45;;;10.10;99.90;;;;;;4941128;28;90488;-37
2022/05/15 05:18:08;;;;;;;19.50;11.75;;;10.10;99.90;;;;;;4941369;28;89194;-37
2022/05/15 05:20:34;;;;;;;17.50;11.35;;;10.30;99.90;;;;;;4941778;28;91774;-36
2022/05/15 05:22:59;;;;;;;25.88;11.45;;;10.40;99.90;;;;;;4941375;28;90658;-34
2022/05/15 05:25:25;;;;;;;21.25;10.48;;;10.40;99.90;;;;;;4941968;28;89824;-37
2022/05/15 05:27:50;;;;;;;22.23;11.90;;;10.40;99.90;;;;;;4940922;28;89104;-37
2022/05/15 05:30:20;;;;;;;25.05;12.20;;;10.60;99.90;;;;;;4941520;28;90150;-38
2022/05/15 05:32:46;;;;;;;22.77;12.05;;;10.70;99.90;;;;;;4941352;28;89746;-35
2022/05/15 05:35:14;;;;;;;22.45;10.85;;;10.80;99.90;;;;;;4941926;28;89355;-33
2022/05/15 05:37:40;;;;;;;27.85;10.63;;;10.80;99.90;;;;;;4940720;28;89729;-37
2022/05/15 05:40:09;;;;;;;18.48;11.73;;;10.90;99.90;;;;;;4940900;28;90595;-37
2022/05/15 05:42:34;;;;;;;20.98;10.65;;;11.20;99.90;;;;;;4941265;28;90599;-39
2022/05/15 05:45:02;;;;;;;19.23;11.05;;;11.50;99.90;;;;;;4940392;28;90020;-38
2022/05/15 05:47:29;;;;;;;25.50;11.52;;;11.50;99.90;;;;;;4941625;28;89373;-36
2022/05/15 05:49:54;;;;;;;25.73;12.63;;;11.70;99.90;;;;;;4941211;28;90366;-35
2022/05/15 05:52:20;;;;;;;23.98;11.80;;;11.80;99.90;;;;;;4940759;28;89608;-38
2022/05/15 05:54:46;;;;;;;22.42;11.32;;;12.00;99.90;;;;;;4940658;28;89645;-38
2022/05/15 05:57:12;;;;;;;22.63;10.10;;;12.30;99.90;;;;;;4941564;28;89969;-34
2022/05/15 05:59:37;;;;;;;19.92;11.40;;;12.50;99.90;;;;;;4940777;28;90719;-33
2022/05/15 06:02:03;;;;;;;23.90;11.45;;;12.60;99.90;;;;;;4940489;28;90529;-34
2022/05/15 06:04:50;;;;;;;24.95;10.50;;;12.60;99.90;;;;;;4940237;28;91106;-37
2022/05/15 06:07:20;;;;;;;25.92;9.85;;;12.80;99.90;;;;;;4940635;28;90007;-33
2022/05/15 06:09:48;;;;;;;26.77;11.05;;;12.80;99.90;;;;;;4941191;28;89979;-34
2022/05/15 06:12:15;;;;;;;18.40;9.88;;;13.10;99.90;;;;;;4940890;28;90275;-39
2022/05/15 06:14:41;;;;;;;27.45;11.57;;;13.40;99.90;;;;;;4941735;28;89411;-35
2022/05/15 06:17:07;;;;;;;32.42;11.27;;;13.60;99.90;;;;;;4940961;28;89936;-34
2022/05/15 06:19:33;;;;;;;18.35;9.43;;;13.80;99.90;;;;;;4940392;28;90710;-36
2022/05/15 06:21:59;;;;;;;17.08;8.48;;;13.90;99.90;;;;;;4941632;28;89727;-37
2022/05/15 06:24:25;;;;;;;20.70;9.88;;;14.00;99.90;;;;;;4940812;28;89523;-37
2022/05/15 06:26:52;;;;;;;24.10;10.82;;;14.20;99.90;;;;;;4941177;28;87999;-34
2022/05/15 06:29:17;;;;;;;20.20;10.27;;;14.20;99.90;;;;;;4940443;28;91860;-34
2022/05/15 06:31:43;;;;;;;25.85;10.95;;;14.40;99.90;;;;;;4939535;28;89718;-34
2022/05/15 06:34:09;;;;;;;22.13;9.80;;;14.70;99.90;;;;;;4940484;28;89530;-37
2022/05/15 06:36:35;;;;;;;17.13;9.32;;;14.70;99.90;;;;;;4940485;28;90493;-37
2022/05/15 06:39:00;;;;;;;20.10;8.43;;;15.30;99.90;;;;;;4941410;28;90246;-38
2022/05/15 06:41:26;;;;;;;15.63;8.95;;;15.40;99.90;;;;;;4940070;28;93179;-34
2022/05/15 06:43:51;;;;;;;14.32;7.88;;;15.30;99.90;;;;;;4939363;28;88594;-38
2022/05/15 06:46:17;;;;;;;16.85;7.78;;;15.60;99.90;;;;;;4941182;28;90156;-35
2022/05/15 06:48:43;;;;;;;14.55;7.70;;;15.60;99.90;;;;;;4940178;28;90891;-34
2022/05/15 06:51:08;;;;;;;17.08;6.97;;;16.00;99.90;;;;;;4940566;28;89346;-36
2022/05/15 06:53:34;;;;;;;13.77;6.78;;;16.40;99.90;;;;;;4940434;28;90207;-35
2022/05/15 06:58:44;;;;;;;14.60;7.18;;;17.00;99.90;;;;;;4940412;28;91651;-36
2022/05/15 07:01:10;;;;;;;13.90;5.35;;;16.90;99.90;;;;;;4939994;28;89696;-34
2022/05/15 07:03:36;;;;;;;14.50;6.78;;;16.90;99.90;;;;;;4940430;28;88570;-37
2022/05/15 07:06:02;;;;;;;8.48;5.57;;;16.90;99.90;;;;;;4940013;28;88359;-35
2022/05/15 07:08:28;;;;;;;13.55;6.10;;;17.00;99.90;;;;;;4940413;28;90317;-38
2022/05/15 07:10:54;;;;;;;12.73;6.80;;;17.30;99.90;;;;;;4940185;28;93600;-35
2022/05/15 07:13:19;;;;;;;13.30;5.40;;;17.90;99.90;;;;;;4940495;28;88681;-35
2022/05/15 07:15:45;;;;;;;15.80;6.03;;;17.40;99.90;;;;;;4940506;28;89317;-38
2022/05/15 07:18:10;;;;;;;15.45;6.65;;;17.30;99.90;;;;;;4940110;28;90280;-34
2022/05/15 07:20:36;;;;;;;18.40;5.65;;;17.30;99.90;;;;;;4940213;28;90012;-38
2022/05/15 07:23:03;;;;;;;9.95;4.80;;;17.50;99.90;;;;;;4940434;28;89885;-35
2022/05/15 07:25:28;;;;;;;10.20;4.50;;;18.00;99.90;;;;;;4940232;28;88748;-36
2022/05/15 07:27:54;;;;;;;8.02;4.82;;;18.20;99.90;;;;;;4940130;28;90413;-33
2022/05/15 07:30:20;;;;;;;17.42;4.85;;;18.60;99.90;;;;;;4939433;28;88975;-37
2022/05/15 07:32:46;;;;;;;13.40;4.93;;;18.10;99.90;;;;;;4940563;28;90884;-34
2022/05/15 07:35:12;;;;;;;13.80;4.80;;;18.50;99.90;;;;;;4940244;28;87937;-35
2022/05/15 07:37:37;;;;;;;9.57;4.85;;;17.80;99.90;;;;;;4939599;28;90081;-39
2022/05/15 07:40:03;;;;;;;10.38;5.35;;;18.30;99.90;;;;;;4939814;28;89219;-33
2022/05/15 07:42:29;;;;;;;6.57;3.88;;;18.30;99.90;;;;;;4939428;28;90707;-35
2022/05/15 07:44:57;;;;;;;9.80;5.00;;;18.50;99.90;;;;;;4939658;28;88127;-38
2022/05/15 07:47:23;;;;;;;;;;;18.70;99.90;;;;;;4941325;28;90085;-38
2022/05/15 07:49:49;;;;;;;11.38;5.28;;;18.90;99.90;;;;;;4940374;28;90395;-35
2022/05/15 07:52:14;;;;;;;14.05;4.90;;;19.30;99.90;;;;;;4940501;28;89668;-36
2022/05/15 07:54:40;;;;;;;9.77;4.85;;;19.00;99.90;;;;;;4939536;28;89027;-37
2022/05/15 07:57:06;;;;;;;16.48;6.28;;;18.90;99.90;;;;;;4940028;28;90730;-35
2022/05/15 07:59:32;;;;;;;8.57;5.32;;;19.00;99.90;;;;;;4940428;28;89464;-35
2022/05/15 08:01:59;;;;;;;12.35;5.43;;;19.20;99.90;;;;;;4939664;28;89566;-35
2022/05/15 08:04:25;;;;;;;13.85;5.90;;;19.30;99.90;;;;;;4939751;28;90168;-39
2022/05/15 08:09:34;;;;;;;10.95;4.30;;;19.40;99.90;;;;;;4938800;28;90191;-39
2022/05/15 08:12:00;;;;;;;15.60;5.38;;;19.60;99.50;;;;;;4940165;28;89667;-35
2022/05/15 08:14:28;;;;;;;13.30;5.05;;;19.30;99.90;;;;;;4939248;28;89690;-38
2022/05/15 08:16:53;;;;;;;20.07;5.53;;;19.40;95.70;;;;;;4939831;28;89355;-35
2022/05/15 08:24:48;;;;;;;8.18;4.15;;;19.40;94.20;;;;;;4957594;28;88366;-36
2022/05/15 08:27:14;;;;;;;9.77;4.53;;;19.30;92.40;;;;;;4956721;28;90389;-35
2022/05/15 08:29:40;;;;;;;13.43;5.97;;;19.30;88.70;;;;;;4957181;28;90833;-38
2022/05/15 08:32:07;;;;;;;10.73;5.82;;;19.40;85.20;;;;;;4956955;28;91914;-36
2022/05/15 08:34:33;;;;;;;19.88;5.30;;;19.60;85.70;;;;;;4957325;28;89386;-38
2022/05/15 08:37:00;;;;;;;13.98;4.88;;;19.80;92.80;;;;;;4956998;28;90435;-37
2022/05/15 08:39:28;;;;;;;12.60;4.88;;;19.90;90.40;;;;;;4957407;28;89546;-38
2022/05/15 08:42:20;;;;;;;7.95;4.93;;;20.20;81.50;;;;;;4960224;28;89493;-37
2022/05/15 08:44:47;;;;;;;12.23;5.28;;;20.20;79.70;;;;;;4959865;28;90444;-35
2022/05/15 08:47:28;;;;;;;13.27;5.97;;;20.10;85.80;;;;;;4960198;28;90688;-37
2022/05/15 08:50:24;;;;;;;19.42;5.38;;;20.30;89.70;;;;;;4960598;28;89569;-36
2022/05/15 08:53:00;;;;;;;18.58;4.82;;;20.40;86.10;;;;;;4959465;28;90090;-34
2022/05/15 08:55:48;;;;;;;13.50;5.70;;;20.00;86.00;;;;;;4959153;28;88595;-37
2022/05/15 08:58:26;;;;;;;14.85;5.25;;;20.40;76.40;;;;;;4947678;28;90265;-38
2022/05/15 09:00:54;;;;;;;15.77;5.78;;;20.10;87.70;;;;;;4939764;28;89687;-36
2022/05/15 09:03:25;;;;;;;13.68;5.75;;;20.60;79.90;;;;;;4939672;28;89381;-38
2022/05/15 09:06:08;;;;;;;11.60;4.80;;;21.10;78.70;;;;;;4949121;28;89270;-36
2022/05/15 09:09:06;;;;;;;13.07;4.97;;;21.00;69.60;;;;;;4959463;28;89210;-39
2022/05/15 09:11:57;;;;;;;14.65;4.68;;;20.90;72.00;;;;;;4944875;28;89464;-35
2022/05/15 09:14:53;;;;;;;10.88;4.97;;;20.20;68.60;;;;;;4959557;28;89549;-36
2022/05/15 09:17:37;;;;;;;11.32;4.72;;;20.40;78.60;;;;;;4942406;28;88954;-34
2022/05/15 09:20:27;;;;;;;9.27;4.43;;;20.60;72.40;;;;;;4958653;28;90319;-36
2022/05/15 09:23:25;;;;;;;11.38;4.70;;;20.80;69.50;;;;;;4957957;28;92495;-38
2022/05/15 09:25:59;;;;;;;13.13;5.88;;;21.50;68.10;;;;;;4959137;28;90673;-38
2022/05/15 09:28:28;;;;;;;9.48;5.60;;;21.70;68.60;;;;;;4959525;28;88618;-37
2022/05/15 09:30:58;;;;;;;17.27;5.18;;;21.90;68.50;;;;;;4958863;28;90959;-36
2022/05/15 09:33:50;;;;;;;12.43;4.53;;;21.70;63.70;;;;;;4958609;28;90143;-38
2022/05/15 09:36:29;;;;;;;8.75;5.05;;;21.80;64.10;;;;;;4956097;28;89519;-35
2022/05/15 09:39:22;;;;;;;10.02;4.80;;;21.90;61.50;;;;;;4958660;28;89778;-35
2022/05/15 09:45:53;;;;;;;12.52;5.53;;;21.30;62.50;;;;;;4958153;28;89765;-38
2022/05/15 09:48:28;;;;;;;11.93;5.20;;;21.70;66.50;;;;;;4938627;28;89483;-35
2022/05/15 09:51:00;;;;;;;13.90;5.65;;;21.60;64.10;;;;;;4958013;28;89290;-35
2022/05/15 09:53:51;;;;;;;10.45;4.85;;;22.10;62.00;;;;;;4958866;28;92299;-37
2022/05/15 09:56:19;;;;;;;19.85;5.15;;;21.80;62.40;;;;;;4958310;28;90507;-35
2022/05/15 09:58:51;;;;;;;12.73;7.18;;;21.30;63.90;;;;;;4958516;28;89600;-36
2022/05/15 10:01:22;;;;;;;12.68;4.50;;;21.20;64.10;;;;;;4959022;28;88588;-34
2022/05/15 10:03:53;;;;;;;14.23;5.93;;;21.60;68.80;;;;;;4957997;28;90338;-36
2022/05/15 10:06:22;;;;;;;11.88;5.93;;;21.90;67.90;;;;;;4957687;28;89685;-36
2022/05/15 10:09:12;;;;;;;16.52;5.55;;;21.60;65.00;;;;;;4958261;28;90209;-41
2022/05/15 10:11:43;;;;;;;10.20;4.97;;;21.60;69.10;;;;;;4958717;28;89573;-35
2022/05/15 10:14:26;;;;;;;13.80;5.10;;;21.50;66.10;;;;;;4958570;28;92640;-37
2022/05/15 10:16:54;;;;;;;11.00;4.82;;;21.20;65.50;;;;;;4958017;28;91069;-37
2022/05/15 10:19:32;;;;;;;16.33;5.75;;;21.10;64.50;;;;;;4958659;28;89299;-35
2022/05/15 10:22:25;;;;;;;13.00;5.05;;;21.60;68.70;;;;;;4959014;28;90062;-37
2022/05/15 10:24:51;;;;;;;12.70;4.57;;;21.80;63.60;;;;;;4950180;28;90366;-38
2022/05/15 10:27:26;;;;;;;9.95;3.95;;;21.80;64.30;;;;;;4957959;28;89750;-35
2022/05/15 10:30:13;;;;;;;19.08;5.53;;;22.00;65.70;;;;;;4957824;28;89482;-35
2022/05/15 10:32:55;;;;;;;10.77;5.88;;;22.00;62.50;;;;;;4958438;28;88518;-36
2022/05/15 10:35:45;;;;;;;10.27;5.45;;;21.80;60.00;;;;;;4958722;28;90331;-38
2022/05/15 10:38:38;;;;;;;10.40;5.10;;;22.00;65.10;;;;;;4941095;28;89737;-36
2022/05/15 10:41:14;;;;;;;12.85;4.40;;;21.70;60.40;;;;;;4958017;28;89515;-35
2022/05/15 10:43:53;;;;;;;11.45;4.38;;;21.50;58.70;;;;;;4976915;28;89446;-36
2022/05/15 10:46:32;;;;;;;11.35;5.03;;;21.60;59.40;;;;;;4977824;28;89026;-36
2022/05/15 10:49:25;;;;;;;11.60;5.13;;;21.70;61.10;;;;;;4970747;28;90582;-39
2022/05/15 10:52:02;;;;;;;10.20;5.28;;;21.20;59.20;;;;;;4956875;28;89659;-37
2022/05/15 10:58:13;;;;;;;11.45;4.53;;;21.30;55.40;;;;;;4957022;28;90656;-39
2022/05/15 11:00:45;;;;;;;;;;;21.80;59.10;;;;;;4957424;28;89772;-38
2022/05/15 11:03:41;;;;;;;22.90;6.10;;;21.80;57.20;;;;;;4957958;28;89560;-39
2022/05/15 11:06:32;;;;;;;8.15;4.45;;;21.80;58.40;;;;;;4958611;28;89309;-42
2022/05/15 11:09:10;;;;;;;10.77;4.18;;;21.80;57.70;;;;;;4957594;28;90247;-35
2022/05/15 11:11:54;;;;;;;13.93;5.20;;;22.10;56.10;;;;;;4956648;28;90552;-35
2022/05/15 11:14:46;;;;;;;13.20;5.00;;;21.50;54.60;;;;;;4957898;28;90415;-36
2022/05/15 11:17:30;;;;;;;17.08;5.65;;;21.40;54.10;;;;;;4957761;28;89533;-39
2022/05/15 11:20:04;;;;;;;9.38;4.75;;;21.50;55.70;;;;;;4957944;28;91231;-34
2022/05/15 11:22:38;;;;;;;7.60;4.43;;;21.70;55.80;;;;;;4957417;28;90610;-36
2022/05/15 11:25:17;;;;;;;8.82;4.18;;;21.60;55.60;;;;;;4957764;28;89024;-34
2022/05/15 11:27:57;;;;;;;5.95;4.38;;;21.80;57.30;;;;;;4957337;28;89107;-36
2022/05/15 11:30:28;;;;;;;12.52;4.60;;;21.80;55.60;;;;;;4958138;28;89936;-33
2022/05/15 11:32:53;;;;;;;17.98;5.53;;;21.90;56.50;;;;;;4957199;28;89698;-36
2022/05/15 11:35:20;;;;;;;12.90;5.47;;;22.20;58.10;;;;;;4957021;28;88558;-35
2022/05/15 11:38:11;;;;;;;11.25;5.80;;;22.00;56.80;;;;;;4956252;28;90268;-38
2022/05/15 11:40:46;;;;;;;12.35;5.07;;;21.60;58.90;;;;;;4956875;28;90150;-38
2022/05/15 11:43:27;;;;;;;11.30;4.65;;;22.10;58.50;;;;;;4958012;28;90729;-36
2022/05/15 11:45:59;;;;;;;10.43;4.38;;;22.30;55.90;;;;;;4956568;28;89344;-36
2022/05/15 11:48:49;;;;;;;17.33;4.85;;;22.40;57.30;;;;;;4956563;28;89800;-35
2022/05/15 11:51:15;;;;;;;17.17;5.82;;;22.30;54.70;;;;;;4957230;28;90261;-36
2022/05/15 11:53:59;;;;;;;12.43;4.55;;;22.10;54.60;;;;;;4956685;28;89893;-38
2022/05/15 11:56:43;;;;;;;9.00;4.53;;;22.10;54.00;;;;;;4958425;28;88890;-35
2022/05/15 11:59:25;;;;;;;18.02;5.28;;;21.90;56.30;;;;;;4957452;28;88770;-35
2022/05/15 12:02:00;;;;;;;8.90;4.50;;;21.70;57.00;;;;;;4956333;28;89491;-36
2022/05/15 12:04:35;;;;;;;11.05;4.55;;;21.60;56.00;;;;;;4955717;28;90583;-37
2022/05/15 12:07:00;;;;;;;15.25;4.85;;;21.80;55.50;;;;;;4955742;28;90720;-35
2022/05/15 12:09:41;;;;;;;15.25;5.43;;;21.90;55.20;;;;;;4957475;28;89428;-36
2022/05/15 12:12:27;;;;;;;9.93;4.93;;;22.20;54.40;;;;;;4957204;28;90219;-38
2022/05/15 12:15:19;;;;;;;12.18;5.55;;;22.30;56.60;;;;;;4958220;28;90358;-37
2022/05/15 12:17:57;;;;;;;10.35;4.43;;;22.20;53.60;;;;;;4962794;28;89495;-38
2022/05/15 12:20:28;;;;;;;11.95;4.97;;;22.10;55.30;;;;;;4961091;28;88703;-36
2022/05/15 12:22:59;;;;;;;12.20;5.65;;;22.20;54.20;;;;;;4961051;28;90206;-35
2022/05/15 12:25:37;;;;;;;10.32;4.68;;;22.10;53.10;;;;;;4960307;28;89772;-37
2022/05/15 12:30:50;;;;;;;10.73;5.10;;;22.60;54.10;;;;;;4961642;28;89927;-36
2022/05/15 12:33:27;;;;;;;10.20;4.53;;;22.70;53.00;;;;;;4959932;28;90137;-38
2022/05/15 12:35:54;;;;;;;21.88;5.47;;;22.90;52.70;;;;;;4960389;28;89755;-38
2022/05/15 12:38:24;;;;;;;6.97;3.95;;;22.90;51.90;;;;;;4960864;28;89583;-36
2022/05/15 12:41:00;;;;;;;20.83;5.22;;;22.60;53.00;;;;;;4960332;28;88070;-36
2022/05/15 12:45:59;;;;;;;11.68;4.18;;;22.80;51.30;;;;;;4958685;28;88872;-36
2022/05/15 12:48:25;;;;;;;12.75;5.13;;;22.80;52.80;;;;;;4959914;28;89696;-40
2022/05/15 12:51:03;;;;;;;9.60;4.80;;;22.60;52.60;;;;;;4960299;28;89761;-38
2022/05/15 12:53:31;;;;;;;6.28;4.10;;;23.20;53.10;;;;;;4960338;28;90126;-39
2022/05/15 12:56:15;;;;;;;7.80;4.82;;;23.10;51.90;;;;;;4958978;28;91702;-35
2022/05/15 12:58:42;;;;;;;10.98;4.38;;;22.60;50.50;;;;;;4959760;28;90489;-38
2022/05/15 13:01:12;;;;;;;8.73;4.63;;;22.60;52.70;;;;;;4960543;28;87911;-39
2022/05/15 13:03:47;;;;;;;9.68;4.05;;;22.70;51.70;;;;;;4959889;28;89918;-40
2022/05/15 13:06:12;;;;;;;8.52;4.78;;;22.50;51.70;;;;;;4960229;28;89860;-37
2022/05/15 13:08:54;;;;;;;8.48;4.93;;;22.40;52.50;;;;;;4959293;28;94668;-40
2022/05/15 13:11:28;;;;;;;11.25;4.22;;;22.40;51.90;;;;;;4959259;28;87714;-39
2022/05/15 13:13:58;;;;;;;12.85;5.25;;;22.60;52.30;;;;;;4960489;28;90828;-37
2022/05/15 13:16:29;;;;;;;5.65;3.75;;;22.50;51.60;;;;;;4960079;28;89558;-36
2022/05/15 13:18:56;;;;;;;8.65;5.15;;;22.40;50.50;;;;;;4960182;28;89357;-35
2022/05/15 13:21:28;;;;;;;13.60;5.05;;;22.30;50.80;;;;;;4959300;28;89838;-39